sensor_id;sensor_type;location;lat;lon;timestamp;P1;durP1;ratioP1;P2;durP2;ratioP2
10653;SDS011;5375;51.250;6.776;2024-03-22T00:00:18;6.00;;;4.20;;
10653;SDS011;5375;51.250;6.776;2024-03-22T00:02:47;5.75;;;4.20;;
10653;SDS011;5375;51.250;6.776;2024-03-22T00:05:13;4.20;;;3.60;;
10653;SDS011;5375;51.250;6.776;2024-03-22T00:07:39;5.17;;;4.03;;
10653;SDS011;5375;51.250;6.776;2024-03-22T00:10:05;5.40;;;4.00;;
10653;SDS011;5375;51.250;6.776;2024-03-22T00:12:31;4.63;;;4.10;;
10653;SDS011;5375;51.250;6.776;2024-03-22T00:14:57;4.57;;;3.90;;
10653;SDS011;5375;51.250;6.776;2024-03-22T00:17:23;5.07;;;4.00;;
10653;SDS011;5375;51.250;6.776;2024-03-22T00:19:49;6.00;;;4.32;;
10653;SDS011;5375;51.250;6.776;2024-03-22T00:22:15;6.20;;;4.43;;
10653;SDS011;5375;51.250;6.776;2024-03-22T00:24:41;5.57;;;4.20;;
10653;SDS011;5375;51.250;6.776;2024-03-22T00:27:07;4.40;;;3.87;;
10653;SDS011;5375;51.250;6.776;2024-03-22T00:29:33;5.73;;;4.20;;
10653;SDS011;5375;51.250;6.776;2024-03-22T00:31:59;5.03;;;3.97;;
10653;SDS011;5375;51.250;6.776;2024-03-22T00:34:25;5.33;;;4.03;;
10653;SDS011;5375;51.250;6.776;2024-03-22T00:36:51;5.10;;;4.20;;
10653;SDS011;5375;51.250;6.776;2024-03-22T00:39:17;5.70;;;3.60;;
10653;SDS011;5375;51.250;6.776;2024-03-22T00:41:43;4.67;;;3.80;;
10653;SDS011;5375;51.250;6.776;2024-03-22T00:44:09;5.20;;;3.73;;
10653;SDS011;5375;51.250;6.776;2024-03-22T00:46:35;5.27;;;3.80;;
10653;SDS011;5375;51.250;6.776;2024-03-22T00:49:01;5.97;;;4.10;;
10653;SDS011;5375;51.250;6.776;2024-03-22T00:51:28;5.47;;;4.30;;
10653;SDS011;5375;51.250;6.776;2024-03-22T00:53:54;5.03;;;3.73;;
10653;SDS011;5375;51.250;6.776;2024-03-22T00:56:20;4.90;;;3.50;;
10653;SDS011;5375;51.250;6.776;2024-03-22T00:58:46;5.67;;;4.00;;
10653;SDS011;5375;51.250;6.776;2024-03-22T01:01:12;4.40;;;3.70;;
10653;SDS011;5375;51.250;6.776;2024-03-22T01:03:38;5.37;;;3.70;;
10653;SDS011;5375;51.250;6.776;2024-03-22T01:06:04;5.33;;;3.60;;
10653;SDS011;5375;51.250;6.776;2024-03-22T01:08:30;5.90;;;3.78;;
10653;SDS011;5375;51.250;6.776;2024-03-22T01:10:56;4.77;;;3.67;;
10653;SDS011;5375;51.250;6.776;2024-03-22T01:13:22;4.70;;;3.70;;
10653;SDS011;5375;51.250;6.776;2024-03-22T01:15:48;4.13;;;3.40;;
10653;SDS011;5375;51.250;6.776;2024-03-22T01:18:14;4.47;;;3.77;;
10653;SDS011;5375;51.250;6.776;2024-03-22T01:20:40;5.33;;;3.87;;
10653;SDS011;5375;51.250;6.776;2024-03-22T01:23:07;5.37;;;3.97;;
10653;SDS011;5375;51.250;6.776;2024-03-22T01:25:33;5.43;;;3.93;;
10653;SDS011;5375;51.250;6.776;2024-03-22T01:27:59;7.50;;;3.83;;
10653;SDS011;5375;51.250;6.776;2024-03-22T01:30:25;4.15;;;3.65;;
10653;SDS011;5375;51.250;6.776;2024-03-22T01:32:55;5.10;;;3.67;;
10653;SDS011;5375;51.250;6.776;2024-03-22T01:35:21;5.07;;;3.67;;
10653;SDS011;5375;51.250;6.776;2024-03-22T01:37:47;5.30;;;3.47;;
10653;SDS011;5375;51.250;6.776;2024-03-22T01:40:13;4.87;;;3.93;;
10653;SDS011;5375;51.250;6.776;2024-03-22T01:42:39;5.53;;;4.00;;
10653;SDS011;5375;51.250;6.776;2024-03-22T01:45:05;4.73;;;3.70;;
10653;SDS011;5375;51.250;6.776;2024-03-22T01:47:31;5.17;;;3.60;;
10653;SDS011;5375;51.250;6.776;2024-03-22T01:49:57;5.13;;;3.60;;
10653;SDS011;5375;51.250;6.776;2024-03-22T01:52:24;5.60;;;3.70;;
10653;SDS011;5375;51.250;6.776;2024-03-22T01:54:50;5.47;;;3.73;;
10653;SDS011;5375;51.250;6.776;2024-03-22T01:57:16;3.83;;;3.30;;
10653;SDS011;5375;51.250;6.776;2024-03-22T01:59:42;6.60;;;3.50;;
10653;SDS011;5375;51.250;6.776;2024-03-22T02:02:08;6.57;;;4.20;;
10653;SDS011;5375;51.250;6.776;2024-03-22T02:04:36;4.73;;;3.83;;
10653;SDS011;5375;51.250;6.776;2024-03-22T02:07:02;5.07;;;3.17;;
10653;SDS011;5375;51.250;6.776;2024-03-22T02:09:28;4.43;;;3.53;;
10653;SDS011;5375;51.250;6.776;2024-03-22T02:11:54;5.78;;;3.50;;
10653;SDS011;5375;51.250;6.776;2024-03-22T02:14:20;5.17;;;3.17;;
10653;SDS011;5375;51.250;6.776;2024-03-22T02:16:46;4.30;;;3.47;;
10653;SDS011;5375;51.250;6.776;2024-03-22T02:19:12;6.20;;;3.70;;
10653;SDS011;5375;51.250;6.776;2024-03-22T02:21:38;5.13;;;3.20;;
10653;SDS011;5375;51.250;6.776;2024-03-22T02:24:04;4.77;;;3.20;;
10653;SDS011;5375;51.250;6.776;2024-03-22T02:26:30;5.77;;;3.50;;
10653;SDS011;5375;51.250;6.776;2024-03-22T02:28:56;4.10;;;2.83;;
10653;SDS011;5375;51.250;6.776;2024-03-22T02:31:22;4.47;;;2.97;;
10653;SDS011;5375;51.250;6.776;2024-03-22T02:33:50;10.63;;;3.10;;
10653;SDS011;5375;51.250;6.776;2024-03-22T02:36:16;8.37;;;3.90;;
10653;SDS011;5375;51.250;6.776;2024-03-22T02:38:42;7.43;;;3.63;;
10653;SDS011;5375;51.250;6.776;2024-03-22T02:41:08;5.17;;;3.33;;
10653;SDS011;5375;51.250;6.776;2024-03-22T02:43:34;5.67;;;3.53;;
10653;SDS011;5375;51.250;6.776;2024-03-22T02:46:00;7.47;;;3.70;;
10653;SDS011;5375;51.250;6.776;2024-03-22T02:48:26;5.50;;;3.13;;
10653;SDS011;5375;51.250;6.776;2024-03-22T02:50:55;5.30;;;3.40;;
10653;SDS011;5375;51.250;6.776;2024-03-22T02:53:21;6.97;;;3.30;;
10653;SDS011;5375;51.250;6.776;2024-03-22T02:55:47;4.78;;;3.30;;
10653;SDS011;5375;51.250;6.776;2024-03-22T02:58:17;5.03;;;3.37;;
10653;SDS011;5375;51.250;6.776;2024-03-22T03:00:43;5.07;;;3.10;;
10653;SDS011;5375;51.250;6.776;2024-03-22T03:03:09;4.23;;;2.83;;
10653;SDS011;5375;51.250;6.776;2024-03-22T03:05:35;4.73;;;3.00;;
10653;SDS011;5375;51.250;6.776;2024-03-22T03:08:01;7.07;;;3.20;;
10653;SDS011;5375;51.250;6.776;2024-03-22T03:10:28;5.23;;;3.20;;
10653;SDS011;5375;51.250;6.776;2024-03-22T03:12:56;5.13;;;3.20;;
10653;SDS011;5375;51.250;6.776;2024-03-22T03:15:22;3.83;;;2.70;;
10653;SDS011;5375;51.250;6.776;2024-03-22T03:17:48;3.33;;;2.77;;
10653;SDS011;5375;51.250;6.776;2024-03-22T03:20:14;4.63;;;2.97;;
10653;SDS011;5375;51.250;6.776;2024-03-22T03:22:40;3.63;;;3.10;;
10653;SDS011;5375;51.250;6.776;2024-03-22T03:25:06;3.77;;;2.83;;
10653;SDS011;5375;51.250;6.776;2024-03-22T03:27:33;3.70;;;2.70;;
10653;SDS011;5375;51.250;6.776;2024-03-22T03:30:00;4.43;;;3.00;;
10653;SDS011;5375;51.250;6.776;2024-03-22T03:32:26;4.30;;;2.60;;
10653;SDS011;5375;51.250;6.776;2024-03-22T03:34:52;4.60;;;3.10;;
10653;SDS011;5375;51.250;6.776;2024-03-22T03:37:18;5.70;;;3.10;;
10653;SDS011;5375;51.250;6.776;2024-03-22T03:39:44;3.27;;;2.90;;
10653;SDS011;5375;51.250;6.776;2024-03-22T03:42:10;4.33;;;3.20;;
10653;SDS011;5375;51.250;6.776;2024-03-22T03:44:36;4.53;;;3.17;;
10653;SDS011;5375;51.250;6.776;2024-03-22T03:47:03;8.23;;;3.13;;
10653;SDS011;5375;51.250;6.776;2024-03-22T03:49:29;10.20;;;3.07;;
10653;SDS011;5375;51.250;6.776;2024-03-22T03:51:55;3.20;;;2.60;;
10653;SDS011;5375;51.250;6.776;2024-03-22T03:54:21;4.20;;;3.00;;
10653;SDS011;5375;51.250;6.776;2024-03-22T03:56:47;4.70;;;2.97;;
10653;SDS011;5375;51.250;6.776;2024-03-22T03:59:12;5.53;;;3.00;;
10653;SDS011;5375;51.250;6.776;2024-03-22T04:01:40;5.10;;;2.70;;
10653;SDS011;5375;51.250;6.776;2024-03-22T04:04:06;8.67;;;2.90;;
10653;SDS011;5375;51.250;6.776;2024-03-22T04:06:31;4.63;;;2.80;;
10653;SDS011;5375;51.250;6.776;2024-03-22T04:08:59;6.20;;;3.37;;
10653;SDS011;5375;51.250;6.776;2024-03-22T04:11:25;4.70;;;2.70;;
10653;SDS011;5375;51.250;6.776;2024-03-22T04:13:51;5.40;;;3.10;;
10653;SDS011;5375;51.250;6.776;2024-03-22T04:16:17;6.63;;;3.13;;
10653;SDS011;5375;51.250;6.776;2024-03-22T04:18:43;4.53;;;3.00;;
10653;SDS011;5375;51.250;6.776;2024-03-22T04:21:09;4.60;;;3.00;;
10653;SDS011;5375;51.250;6.776;2024-03-22T04:23:35;4.57;;;2.83;;
10653;SDS011;5375;51.250;6.776;2024-03-22T04:26:02;5.80;;;3.37;;
10653;SDS011;5375;51.250;6.776;2024-03-22T04:28:28;5.30;;;2.80;;
10653;SDS011;5375;51.250;6.776;2024-03-22T04:30:56;4.23;;;3.10;;
10653;SDS011;5375;51.250;6.776;2024-03-22T04:33:22;3.57;;;2.70;;
10653;SDS011;5375;51.250;6.776;2024-03-22T04:35:48;7.07;;;3.10;;
10653;SDS011;5375;51.250;6.776;2024-03-22T04:38:14;4.77;;;3.13;;
10653;SDS011;5375;51.250;6.776;2024-03-22T04:40:40;4.00;;;3.00;;
10653;SDS011;5375;51.250;6.776;2024-03-22T04:43:06;4.33;;;2.60;;
10653;SDS011;5375;51.250;6.776;2024-03-22T04:45:32;3.57;;;2.87;;
10653;SDS011;5375;51.250;6.776;2024-03-22T04:47:58;6.37;;;2.80;;
10653;SDS011;5375;51.250;6.776;2024-03-22T04:50:24;3.20;;;2.70;;
10653;SDS011;5375;51.250;6.776;2024-03-22T04:52:50;3.97;;;2.70;;
10653;SDS011;5375;51.250;6.776;2024-03-22T04:55:16;3.53;;;2.80;;
10653;SDS011;5375;51.250;6.776;2024-03-22T04:57:42;4.10;;;3.10;;
10653;SDS011;5375;51.250;6.776;2024-03-22T05:00:08;4.40;;;2.90;;
10653;SDS011;5375;51.250;6.776;2024-03-22T05:02:34;3.37;;;2.50;;
10653;SDS011;5375;51.250;6.776;2024-03-22T05:05:00;5.40;;;3.10;;
10653;SDS011;5375;51.250;6.776;2024-03-22T05:07:26;3.93;;;2.80;;
10653;SDS011;5375;51.250;6.776;2024-03-22T05:09:53;3.73;;;2.43;;
10653;SDS011;5375;51.250;6.776;2024-03-22T05:12:18;4.43;;;2.80;;
10653;SDS011;5375;51.250;6.776;2024-03-22T05:14:45;6.97;;;2.70;;
10653;SDS011;5375;51.250;6.776;2024-03-22T05:17:14;4.47;;;2.83;;
10653;SDS011;5375;51.250;6.776;2024-03-22T05:19:40;2.97;;;2.67;;
10653;SDS011;5375;51.250;6.776;2024-03-22T05:22:09;3.80;;;2.63;;
10653;SDS011;5375;51.250;6.776;2024-03-22T05:24:41;7.17;;;2.70;;
10653;SDS011;5375;51.250;6.776;2024-03-22T05:27:07;5.83;;;2.57;;
10653;SDS011;5375;51.250;6.776;2024-03-22T05:29:33;3.57;;;2.83;;
10653;SDS011;5375;51.250;6.776;2024-03-22T05:31:59;5.03;;;2.60;;
10653;SDS011;5375;51.250;6.776;2024-03-22T05:34:28;4.40;;;2.77;;
10653;SDS011;5375;51.250;6.776;2024-03-22T05:36:54;4.37;;;3.03;;
10653;SDS011;5375;51.250;6.776;2024-03-22T05:39:20;4.13;;;2.77;;
10653;SDS011;5375;51.250;6.776;2024-03-22T05:41:46;3.97;;;2.80;;
10653;SDS011;5375;51.250;6.776;2024-03-22T05:44:12;3.63;;;2.57;;
10653;SDS011;5375;51.250;6.776;2024-03-22T05:46:38;4.30;;;2.53;;
10653;SDS011;5375;51.250;6.776;2024-03-22T05:49:04;4.03;;;2.77;;
10653;SDS011;5375;51.250;6.776;2024-03-22T05:51:30;5.43;;;3.20;;
10653;SDS011;5375;51.250;6.776;2024-03-22T05:53:56;4.30;;;2.80;;
10653;SDS011;5375;51.250;6.776;2024-03-22T05:56:28;4.77;;;2.60;;
10653;SDS011;5375;51.250;6.776;2024-03-22T05:58:54;4.60;;;2.40;;
10653;SDS011;5375;51.250;6.776;2024-03-22T06:01:20;6.03;;;3.50;;
10653;SDS011;5375;51.250;6.776;2024-03-22T06:03:45;8.67;;;4.33;;
10653;SDS011;5375;51.250;6.776;2024-03-22T06:06:12;5.17;;;3.40;;
10653;SDS011;5375;51.250;6.776;2024-03-22T06:08:38;4.77;;;3.27;;
10653;SDS011;5375;51.250;6.776;2024-03-22T06:11:08;9.27;;;3.47;;
10653;SDS011;5375;51.250;6.776;2024-03-22T06:13:34;4.43;;;3.03;;
10653;SDS011;5375;51.250;6.776;2024-03-22T06:16:01;5.03;;;2.90;;
10653;SDS011;5375;51.250;6.776;2024-03-22T06:18:28;4.83;;;2.97;;
10653;SDS011;5375;51.250;6.776;2024-03-22T06:20:54;4.78;;;2.70;;
10653;SDS011;5375;51.250;6.776;2024-03-22T06:23:21;4.47;;;2.97;;
10653;SDS011;5375;51.250;6.776;2024-03-22T06:25:53;5.40;;;3.03;;
10653;SDS011;5375;51.250;6.776;2024-03-22T06:28:21;6.57;;;2.97;;
10653;SDS011;5375;51.250;6.776;2024-03-22T06:30:47;8.00;;;3.63;;
10653;SDS011;5375;51.250;6.776;2024-03-22T06:33:13;6.43;;;3.37;;
10653;SDS011;5375;51.250;6.776;2024-03-22T06:35:43;11.88;;;3.70;;
10653;SDS011;5375;51.250;6.776;2024-03-22T06:38:10;8.68;;;3.92;;
10653;SDS011;5375;51.250;6.776;2024-03-22T06:40:36;7.60;;;3.80;;
10653;SDS011;5375;51.250;6.776;2024-03-22T06:43:05;10.50;;;4.60;;
10653;SDS011;5375;51.250;6.776;2024-03-22T06:45:31;11.03;;;4.70;;
10653;SDS011;5375;51.250;6.776;2024-03-22T06:47:57;12.60;;;5.00;;
10653;SDS011;5375;51.250;6.776;2024-03-22T06:50:23;9.88;;;4.68;;
10653;SDS011;5375;51.250;6.776;2024-03-22T06:52:50;11.67;;;5.23;;
10653;SDS011;5375;51.250;6.776;2024-03-22T06:55:18;14.50;;;5.33;;
10653;SDS011;5375;51.250;6.776;2024-03-22T06:57:45;14.10;;;4.70;;
10653;SDS011;5375;51.250;6.776;2024-03-22T07:00:11;9.50;;;4.60;;
10653;SDS011;5375;51.250;6.776;2024-03-22T07:02:38;12.50;;;5.10;;
10653;SDS011;5375;51.250;6.776;2024-03-22T07:05:05;9.93;;;4.80;;
10653;SDS011;5375;51.250;6.776;2024-03-22T07:07:31;10.60;;;4.70;;
10653;SDS011;5375;51.250;6.776;2024-03-22T07:09:57;11.00;;;4.63;;
10653;SDS011;5375;51.250;6.776;2024-03-22T07:12:23;9.13;;;4.33;;
10653;SDS011;5375;51.250;6.776;2024-03-22T07:14:49;9.47;;;4.63;;
10653;SDS011;5375;51.250;6.776;2024-03-22T07:17:15;9.77;;;4.10;;
10653;SDS011;5375;51.250;6.776;2024-03-22T07:19:41;13.03;;;4.60;;
10653;SDS011;5375;51.250;6.776;2024-03-22T07:22:08;9.37;;;4.33;;
10653;SDS011;5375;51.250;6.776;2024-03-22T07:24:34;10.47;;;4.27;;
10653;SDS011;5375;51.250;6.776;2024-03-22T07:26:59;14.37;;;4.67;;
10653;SDS011;5375;51.250;6.776;2024-03-22T07:29:25;12.60;;;4.17;;
10653;SDS011;5375;51.250;6.776;2024-03-22T07:31:51;12.60;;;4.20;;
10653;SDS011;5375;51.250;6.776;2024-03-22T07:34:17;9.07;;;4.13;;
10653;SDS011;5375;51.250;6.776;2024-03-22T07:36:43;13.00;;;4.07;;
10653;SDS011;5375;51.250;6.776;2024-03-22T07:39:09;9.43;;;4.33;;
10653;SDS011;5375;51.250;6.776;2024-03-22T07:41:35;9.00;;;4.23;;
10653;SDS011;5375;51.250;6.776;2024-03-22T07:44:01;8.73;;;3.63;;
10653;SDS011;5375;51.250;6.776;2024-03-22T07:46:28;8.73;;;3.33;;
10653;SDS011;5375;51.250;6.776;2024-03-22T07:48:54;8.57;;;3.70;;
10653;SDS011;5375;51.250;6.776;2024-03-22T07:51:20;7.83;;;3.30;;
10653;SDS011;5375;51.250;6.776;2024-03-22T07:53:46;6.63;;;3.30;;
10653;SDS011;5375;51.250;6.776;2024-03-22T07:56:12;7.63;;;3.40;;
10653;SDS011;5375;51.250;6.776;2024-03-22T07:58:38;5.90;;;3.07;;
10653;SDS011;5375;51.250;6.776;2024-03-22T08:01:04;6.20;;;3.50;;
10653;SDS011;5375;51.250;6.776;2024-03-22T08:03:31;7.53;;;3.50;;
10653;SDS011;5375;51.250;6.776;2024-03-22T08:05:57;7.57;;;3.03;;
10653;SDS011;5375;51.250;6.776;2024-03-22T08:08:23;5.63;;;3.30;;
10653;SDS011;5375;51.250;6.776;2024-03-22T08:10:49;7.13;;;2.87;;
10653;SDS011;5375;51.250;6.776;2024-03-22T08:13:15;6.80;;;3.10;;
10653;SDS011;5375;51.250;6.776;2024-03-22T08:15:41;5.80;;;3.03;;
10653;SDS011;5375;51.250;6.776;2024-03-22T08:18:08;5.30;;;3.20;;
10653;SDS011;5375;51.250;6.776;2024-03-22T08:20:34;5.60;;;3.30;;
10653;SDS011;5375;51.250;6.776;2024-03-22T08:23:02;4.57;;;3.17;;
10653;SDS011;5375;51.250;6.776;2024-03-22T08:25:28;7.70;;;2.97;;
10653;SDS011;5375;51.250;6.776;2024-03-22T08:27:55;4.30;;;3.00;;
10653;SDS011;5375;51.250;6.776;2024-03-22T08:30:21;5.80;;;3.40;;
10653;SDS011;5375;51.250;6.776;2024-03-22T08:32:47;8.77;;;3.13;;
10653;SDS011;5375;51.250;6.776;2024-03-22T08:35:13;5.40;;;3.00;;
10653;SDS011;5375;51.250;6.776;2024-03-22T08:37:39;5.70;;;2.60;;
10653;SDS011;5375;51.250;6.776;2024-03-22T08:40:05;7.47;;;3.20;;
10653;SDS011;5375;51.250;6.776;2024-03-22T08:42:32;7.40;;;3.33;;
10653;SDS011;5375;51.250;6.776;2024-03-22T08:44:58;4.37;;;3.07;;
10653;SDS011;5375;51.250;6.776;2024-03-22T08:47:24;4.93;;;3.03;;
10653;SDS011;5375;51.250;6.776;2024-03-22T08:49:51;5.63;;;3.20;;
10653;SDS011;5375;51.250;6.776;2024-03-22T08:52:17;6.73;;;2.70;;
10653;SDS011;5375;51.250;6.776;2024-03-22T08:54:43;6.37;;;3.07;;
10653;SDS011;5375;51.250;6.776;2024-03-22T08:57:09;5.03;;;3.03;;
10653;SDS011;5375;51.250;6.776;2024-03-22T08:59:35;6.93;;;2.53;;
10653;SDS011;5375;51.250;6.776;2024-03-22T09:02:03;7.53;;;2.90;;
10653;SDS011;5375;51.250;6.776;2024-03-22T09:04:29;5.97;;;3.00;;
10653;SDS011;5375;51.250;6.776;2024-03-22T09:06:55;5.47;;;2.80;;
10653;SDS011;5375;51.250;6.776;2024-03-22T09:09:21;5.10;;;2.97;;
10653;SDS011;5375;51.250;6.776;2024-03-22T09:11:47;5.03;;;2.70;;
10653;SDS011;5375;51.250;6.776;2024-03-22T09:14:13;4.40;;;2.67;;
10653;SDS011;5375;51.250;6.776;2024-03-22T09:16:39;5.70;;;2.37;;
10653;SDS011;5375;51.250;6.776;2024-03-22T09:19:05;4.90;;;2.70;;
10653;SDS011;5375;51.250;6.776;2024-03-22T09:21:31;3.60;;;2.60;;
10653;SDS011;5375;51.250;6.776;2024-03-22T09:24:00;6.80;;;3.00;;
10653;SDS011;5375;51.250;6.776;2024-03-22T09:26:28;4.47;;;2.50;;
10653;SDS011;5375;51.250;6.776;2024-03-22T09:28:54;7.17;;;2.77;;
10653;SDS011;5375;51.250;6.776;2024-03-22T09:31:20;2.90;;;2.20;;
10653;SDS011;5375;51.250;6.776;2024-03-22T09:33:46;4.83;;;2.60;;
10653;SDS011;5375;51.250;6.776;2024-03-22T09:36:12;4.07;;;2.33;;
10653;SDS011;5375;51.250;6.776;2024-03-22T09:38:37;3.57;;;2.60;;
10653;SDS011;5375;51.250;6.776;2024-03-22T09:41:03;5.53;;;2.70;;
10653;SDS011;5375;51.250;6.776;2024-03-22T09:43:30;4.40;;;2.43;;
10653;SDS011;5375;51.250;6.776;2024-03-22T09:45:59;5.63;;;2.63;;
10653;SDS011;5375;51.250;6.776;2024-03-22T09:48:25;5.23;;;2.57;;
10653;SDS011;5375;51.250;6.776;2024-03-22T09:50:52;3.13;;;2.13;;
10653;SDS011;5375;51.250;6.776;2024-03-22T09:53:19;3.00;;;2.20;;
10653;SDS011;5375;51.250;6.776;2024-03-22T09:55:47;3.40;;;2.13;;
10653;SDS011;5375;51.250;6.776;2024-03-22T09:58:13;4.63;;;2.42;;
10653;SDS011;5375;51.250;6.776;2024-03-22T10:00:39;3.83;;;2.47;;
10653;SDS011;5375;51.250;6.776;2024-03-22T10:03:05;4.47;;;2.60;;
10653;SDS011;5375;51.250;6.776;2024-03-22T10:05:32;4.43;;;2.20;;
10653;SDS011;5375;51.250;6.776;2024-03-22T10:07:58;3.58;;;2.10;;
10653;SDS011;5375;51.250;6.776;2024-03-22T10:10:24;4.93;;;2.43;;
10653;SDS011;5375;51.250;6.776;2024-03-22T10:12:50;3.83;;;2.40;;
10653;SDS011;5375;51.250;6.776;2024-03-22T10:15:18;4.10;;;2.60;;
10653;SDS011;5375;51.250;6.776;2024-03-22T10:17:44;6.10;;;2.05;;
10653;SDS011;5375;51.250;6.776;2024-03-22T10:20:12;3.10;;;2.40;;
10653;SDS011;5375;51.250;6.776;2024-03-22T10:22:48;2.93;;;2.27;;
10653;SDS011;5375;51.250;6.776;2024-03-22T10:25:14;4.20;;;2.30;;
10653;SDS011;5375;51.250;6.776;2024-03-22T10:27:40;3.33;;;2.45;;
10653;SDS011;5375;51.250;6.776;2024-03-22T10:30:09;3.08;;;2.08;;
10653;SDS011;5375;51.250;6.776;2024-03-22T10:32:36;3.17;;;2.22;;
10653;SDS011;5375;51.250;6.776;2024-03-22T10:35:02;2.47;;;2.00;;
10653;SDS011;5375;51.250;6.776;2024-03-22T10:37:32;3.90;;;2.10;;
10653;SDS011;5375;51.250;6.776;2024-03-22T10:40:02;3.47;;;2.33;;
10653;SDS011;5375;51.250;6.776;2024-03-22T10:42:33;4.17;;;2.53;;
10653;SDS011;5375;51.250;6.776;2024-03-22T10:44:59;3.47;;;2.07;;
10653;SDS011;5375;51.250;6.776;2024-03-22T10:47:25;3.43;;;2.30;;
10653;SDS011;5375;51.250;6.776;2024-03-22T10:49:55;2.90;;;2.20;;
10653;SDS011;5375;51.250;6.776;2024-03-22T10:52:23;2.37;;;2.00;;
10653;SDS011;5375;51.250;6.776;2024-03-22T10:54:50;3.73;;;2.27;;
10653;SDS011;5375;51.250;6.776;2024-03-22T10:57:16;2.77;;;1.90;;
10653;SDS011;5375;51.250;6.776;2024-03-22T10:59:43;3.47;;;2.03;;
10653;SDS011;5375;51.250;6.776;2024-03-22T11:02:10;6.55;;;1.80;;
10653;SDS011;5375;51.250;6.776;2024-03-22T11:04:36;2.73;;;1.83;;
10653;SDS011;5375;51.250;6.776;2024-03-22T11:07:02;3.42;;;2.03;;
10653;SDS011;5375;51.250;6.776;2024-03-22T11:09:29;3.03;;;1.80;;
10653;SDS011;5375;51.250;6.776;2024-03-22T11:11:55;3.67;;;2.30;;
10653;SDS011;5375;51.250;6.776;2024-03-22T11:14:27;3.57;;;2.23;;
10653;SDS011;5375;51.250;6.776;2024-03-22T11:16:53;2.80;;;1.73;;
10653;SDS011;5375;51.250;6.776;2024-03-22T11:19:19;2.50;;;1.97;;
10653;SDS011;5375;51.250;6.776;2024-03-22T11:21:45;3.17;;;2.17;;
10653;SDS011;5375;51.250;6.776;2024-03-22T11:24:11;3.47;;;2.17;;
10653;SDS011;5375;51.250;6.776;2024-03-22T11:26:40;2.87;;;1.80;;
10653;SDS011;5375;51.250;6.776;2024-03-22T11:29:10;2.40;;;1.77;;
10653;SDS011;5375;51.250;6.776;2024-03-22T11:31:36;3.80;;;2.10;;
10653;SDS011;5375;51.250;6.776;2024-03-22T11:34:02;3.47;;;1.95;;
10653;SDS011;5375;51.250;6.776;2024-03-22T11:36:29;2.50;;;1.80;;
10653;SDS011;5375;51.250;6.776;2024-03-22T11:38:55;3.38;;;2.05;;
10653;SDS011;5375;51.250;6.776;2024-03-22T11:41:23;3.03;;;1.93;;
10653;SDS011;5375;51.250;6.776;2024-03-22T11:43:50;2.47;;;2.00;;
10653;SDS011;5375;51.250;6.776;2024-03-22T11:46:16;2.63;;;1.97;;
10653;SDS011;5375;51.250;6.776;2024-03-22T11:48:43;3.47;;;2.10;;
10653;SDS011;5375;51.250;6.776;2024-03-22T11:51:09;3.07;;;2.00;;
10653;SDS011;5375;51.250;6.776;2024-03-22T11:53:48;3.53;;;2.00;;
10653;SDS011;5375;51.250;6.776;2024-03-22T11:56:17;2.50;;;1.80;;
10653;SDS011;5375;51.250;6.776;2024-03-22T11:58:43;6.67;;;1.90;;
10653;SDS011;5375;51.250;6.776;2024-03-22T12:01:15;2.17;;;1.83;;
10653;SDS011;5375;51.250;6.776;2024-03-22T12:03:44;3.60;;;1.87;;
10653;SDS011;5375;51.250;6.776;2024-03-22T12:06:12;2.90;;;1.87;;
10653;SDS011;5375;51.250;6.776;2024-03-22T12:08:38;3.47;;;1.80;;
10653;SDS011;5375;51.250;6.776;2024-03-22T12:11:06;3.60;;;2.00;;
10653;SDS011;5375;51.250;6.776;2024-03-22T12:13:32;2.13;;;1.80;;
10653;SDS011;5375;51.250;6.776;2024-03-22T12:15:58;2.30;;;1.80;;
10653;SDS011;5375;51.250;6.776;2024-03-22T12:18:24;3.50;;;1.63;;
10653;SDS011;5375;51.250;6.776;2024-03-22T12:20:50;2.17;;;1.90;;
10653;SDS011;5375;51.250;6.776;2024-03-22T12:23:16;4.53;;;1.80;;
10653;SDS011;5375;51.250;6.776;2024-03-22T12:25:44;3.50;;;1.80;;
10653;SDS011;5375;51.250;6.776;2024-03-22T12:28:10;2.40;;;1.60;;
10653;SDS011;5375;51.250;6.776;2024-03-22T12:30:36;3.30;;;1.70;;
10653;SDS011;5375;51.250;6.776;2024-03-22T12:33:02;2.70;;;1.80;;
10653;SDS011;5375;51.250;6.776;2024-03-22T12:35:30;2.23;;;1.53;;
10653;SDS011;5375;51.250;6.776;2024-03-22T12:37:57;2.37;;;1.83;;
10653;SDS011;5375;51.250;6.776;2024-03-22T12:40:23;2.03;;;1.83;;
10653;SDS011;5375;51.250;6.776;2024-03-22T12:42:49;3.17;;;1.93;;
10653;SDS011;5375;51.250;6.776;2024-03-22T12:45:15;4.70;;;1.90;;
10653;SDS011;5375;51.250;6.776;2024-03-22T12:47:41;2.00;;;1.60;;
10653;SDS011;5375;51.250;6.776;2024-03-22T12:50:07;1.93;;;1.67;;
10653;SDS011;5375;51.250;6.776;2024-03-22T12:52:38;2.67;;;1.60;;
10653;SDS011;5375;51.250;6.776;2024-03-22T12:55:04;5.17;;;1.90;;
10653;SDS011;5375;51.250;6.776;2024-03-22T12:57:31;2.13;;;1.57;;
10653;SDS011;5375;51.250;6.776;2024-03-22T12:59:57;1.60;;;1.50;;
10653;SDS011;5375;51.250;6.776;2024-03-22T13:02:23;2.10;;;1.70;;
10653;SDS011;5375;51.250;6.776;2024-03-22T13:04:53;2.60;;;1.80;;
10653;SDS011;5375;51.250;6.776;2024-03-22T13:07:29;1.85;;;1.65;;
10653;SDS011;5375;51.250;6.776;2024-03-22T13:09:56;2.03;;;1.70;;
10653;SDS011;5375;51.250;6.776;2024-03-22T13:12:31;3.50;;;2.03;;
10653;SDS011;5375;51.250;6.776;2024-03-22T13:15:01;2.13;;;1.70;;
10653;SDS011;5375;51.250;6.776;2024-03-22T13:17:38;2.43;;;1.77;;
10653;SDS011;5375;51.250;6.776;2024-03-22T13:20:07;2.30;;;1.83;;
10653;SDS011;5375;51.250;6.776;2024-03-22T13:22:39;2.20;;;1.73;;
10653;SDS011;5375;51.250;6.776;2024-03-22T13:25:07;2.67;;;1.90;;
10653;SDS011;5375;51.250;6.776;2024-03-22T13:27:35;2.27;;;1.80;;
10653;SDS011;5375;51.250;6.776;2024-03-22T13:30:04;2.50;;;1.70;;
10653;SDS011;5375;51.250;6.776;2024-03-22T13:32:30;2.40;;;1.70;;
10653;SDS011;5375;51.250;6.776;2024-03-22T13:34:56;2.20;;;1.53;;
10653;SDS011;5375;51.250;6.776;2024-03-22T13:37:22;2.60;;;1.70;;
10653;SDS011;5375;51.250;6.776;2024-03-22T13:39:49;1.90;;;1.70;;
10653;SDS011;5375;51.250;6.776;2024-03-22T13:42:15;2.43;;;1.70;;
10653;SDS011;5375;51.250;6.776;2024-03-22T13:44:41;1.90;;;1.57;;
10653;SDS011;5375;51.250;6.776;2024-03-22T13:47:07;2.20;;;1.90;;
10653;SDS011;5375;51.250;6.776;2024-03-22T13:49:35;3.57;;;1.50;;
10653;SDS011;5375;51.250;6.776;2024-03-22T13:52:01;2.20;;;1.60;;
10653;SDS011;5375;51.250;6.776;2024-03-22T13:54:27;2.40;;;1.80;;
10653;SDS011;5375;51.250;6.776;2024-03-22T13:56:53;2.87;;;2.10;;
10653;SDS011;5375;51.250;6.776;2024-03-22T13:59:19;2.33;;;1.70;;
10653;SDS011;5375;51.250;6.776;2024-03-22T14:01:45;2.27;;;1.70;;
10653;SDS011;5375;51.250;6.776;2024-03-22T14:04:12;3.00;;;1.67;;
10653;SDS011;5375;51.250;6.776;2024-03-22T14:06:40;2.67;;;1.60;;
10653;SDS011;5375;51.250;6.776;2024-03-22T14:09:07;2.10;;;1.40;;
10653;SDS011;5375;51.250;6.776;2024-03-22T14:11:35;2.00;;;1.53;;
10653;SDS011;5375;51.250;6.776;2024-03-22T14:14:01;2.40;;;1.57;;
10653;SDS011;5375;51.250;6.776;2024-03-22T14:16:28;2.47;;;1.90;;
10653;SDS011;5375;51.250;6.776;2024-03-22T14:18:55;1.80;;;1.60;;
10653;SDS011;5375;51.250;6.776;2024-03-22T14:21:21;2.47;;;1.50;;
10653;SDS011;5375;51.250;6.776;2024-03-22T14:23:47;2.97;;;1.75;;
10653;SDS011;5375;51.250;6.776;2024-03-22T14:26:14;2.70;;;1.87;;
10653;SDS011;5375;51.250;6.776;2024-03-22T14:28:41;2.60;;;1.90;;
10653;SDS011;5375;51.250;6.776;2024-03-22T14:31:07;2.60;;;1.93;;
10653;SDS011;5375;51.250;6.776;2024-03-22T14:33:37;1.67;;;1.52;;
10653;SDS011;5375;51.250;6.776;2024-03-22T14:36:04;1.80;;;1.57;;
10653;SDS011;5375;51.250;6.776;2024-03-22T14:38:31;2.30;;;1.73;;
10653;SDS011;5375;51.250;6.776;2024-03-22T14:40:57;2.33;;;1.90;;
10653;SDS011;5375;51.250;6.776;2024-03-22T14:43:23;2.07;;;1.83;;
10653;SDS011;5375;51.250;6.776;2024-03-22T14:45:50;2.90;;;2.10;;
10653;SDS011;5375;51.250;6.776;2024-03-22T14:48:19;2.10;;;1.83;;
10653;SDS011;5375;51.250;6.776;2024-03-22T14:50:45;2.17;;;1.70;;
10653;SDS011;5375;51.250;6.776;2024-03-22T14:53:11;2.20;;;1.80;;
10653;SDS011;5375;51.250;6.776;2024-03-22T14:55:37;2.40;;;1.95;;